Time;durP1;ratioP1;P1;durP2;ratioP2;P2;SDS_P1;SDS_P2;PMS_P1;PMS_P2;Temp;Humidity;BMP_temperature;BMP_pressure;BME280_temperature;BME280_humidity;BME280_pressure;Samples;Min_cycle;Max_cycle;Signal;HPM_P1;HPM_P2
2021/01/19 00:00:44;;;;;;;1.00;0.60;;;2.80;99.90;;;;;;5052346;28;20813;-79
2021/01/19 00:03:09;;;;;;;1.57;0.73;;;4.70;99.90;;;;;;5053963;28;20487;-79
2021/01/19 00:05:35;;;;;;;1.77;0.90;;;2.50;99.90;;;;;;5053755;28;20864;-79
2021/01/19 00:08:01;;;;;;;1.60;0.70;;;3.00;99.90;;;;;;5053486;28;20880;-79
2021/01/19 00:10:26;;;;;;;0.80;0.70;;;2.50;99.90;;;;;;5053907;28;20472;-79
2021/01/19 00:12:52;;;;;;;1.10;0.60;;;3.20;99.90;;;;;;5051701;28;20504;-77
2021/01/19 00:15:18;;;;;;;0.63;0.60;;;2.90;99.90;;;;;;5052880;28;20390;-77
2021/01/19 00:17:44;;;;;;;1.50;0.60;;;2.60;99.90;;;;;;5053051;28;20750;-78
2021/01/19 00:20:10;;;;;;;0.80;0.80;;;2.70;99.90;;;;;;5053979;28;20377;-78
2021/01/19 00:22:36;;;;;;;0.90;0.70;;;1.70;99.90;;;;;;5053783;28;20798;-78
2021/01/19 00:25:02;;;;;;;0.90;0.77;;;2.90;99.90;;;;;;5053519;28;20386;-78
2021/01/19 00:27:28;;;;;;;0.90;0.80;;;1.80;99.90;;;;;;5053759;28;20385;-79
2021/01/19 00:29:53;;;;;;;3.10;1.00;;;2.60;99.90;;;;;;5052666;28;20378;-78
2021/01/19 00:32:19;;;;;;;0.70;0.70;;;1.60;99.90;;;;;;5053205;28;20420;-78
2021/01/19 00:34:45;;;;;;;1.00;0.70;;;1.80;99.90;;;;;;5052870;28;20417;-77
2021/01/19 00:37:11;;;;;;;1.00;0.80;;;2.50;99.90;;;;;;5053341;28;20868;-79
2021/01/19 00:39:36;;;;;;;2.00;0.90;;;3.20;99.90;;;;;;5053426;28;20404;-79
2021/01/19 00:42:03;;;;;;;1.08;0.98;;;2.10;99.90;;;;;;5052831;28;20395;-77
2021/01/19 00:44:29;;;;;;;1.58;0.90;;;1.40;99.90;;;;;;5053130;28;20413;-77
2021/01/19 00:46:55;;;;;;;1.30;1.10;;;1.50;99.90;;;;;;5052559;28;20892;-77
2021/01/19 00:49:21;;;;;;;1.67;1.20;;;1.50;99.90;;;;;;5053215;28;20392;-77
2021/01/19 00:51:46;;;;;;;3.47;1.27;;;1.20;99.90;;;;;;5052312;28;20449;-77
2021/01/19 00:54:12;;;;;;;1.43;1.23;;;1.20;99.90;;;;;;5052762;28;20397;-77
2021/01/19 00:56:42;;;;;;;2.70;1.50;;;1.70;99.90;;;;;;5052521;28;20758;-78
2021/01/19 00:59:09;;;;;;;1.85;1.10;;;2.50;99.90;;;;;;5053138;28;20726;-77
2021/01/19 01:01:42;;;;;;;2.03;1.35;;;0.70;99.90;;;;;;5053180;28;20397;-77
2021/01/19 01:04:08;;;;;;;3.08;1.80;;;1.20;99.90;;;;;;5053079;28;20377;-77
2021/01/19 01:06:34;;;;;;;1.40;1.30;;;1.30;99.90;;;;;;5052703;28;20392;-77
2021/01/19 01:09:00;;;;;;;3.90;1.40;;;0.80;99.90;;;;;;5052135;28;20370;-78
2021/01/19 01:11:26;;;;;;;2.47;1.02;;;1.20;99.90;;;;;;5052563;28;20467;-77
2021/01/19 01:13:51;;;;;;;2.10;1.50;;;2.70;99.90;;;;;;5051749;28;20415;-77
2021/01/19 01:16:17;;;;;;;4.00;1.67;;;1.90;99.90;;;;;;5052570;28;20391;-77
2021/01/19 01:18:43;;;;;;;1.95;1.20;;;0.60;99.90;;;;;;5051909;28;20385;-78
2021/01/19 01:21:10;;;;;;;2.30;1.48;;;0.20;99.90;;;;;;5052561;28;20389;-77
2021/01/19 01:23:37;;;;;;;1.65;1.30;;;2.80;99.90;;;;;;5051399;28;20874;-78
2021/01/19 01:26:03;;;;;;;2.92;1.60;;;2.20;99.90;;;;;;5052006;28;20389;-77
2021/01/19 01:28:28;;;;;;;1.60;1.15;;;0.50;99.90;;;;;;5052262;28;20386;-77
2021/01/19 01:30:54;;;;;;;1.80;1.50;;;0.30;99.90;;;;;;5050467;28;20443;-77
2021/01/19 01:33:20;;;;;;;2.50;1.38;;;1.30;99.90;;;;;;5052158;28;20417;-76
2021/01/19 01:35:46;;;;;;;2.60;1.50;;;0.50;99.90;;;;;;5051455;28;20389;-76
2021/01/19 01:38:11;;;;;;;1.40;1.30;;;0.80;99.90;;;;;;5052396;28;20369;-77
2021/01/19 01:40:37;;;;;;;4.03;1.70;;;0.10;99.90;;;;;;5051127;28;20393;-77
2021/01/19 01:43:13;;;;;;;2.10;1.40;;;1.50;99.90;;;;;;5051565;28;20385;-78
2021/01/19 01:45:40;;;;;;;1.73;1.30;;;0.00;99.90;;;;;;5052351;28;20393;-77
2021/01/19 01:48:09;;;;;;;1.63;1.20;;;1.10;99.90;;;;;;5051647;28;20397;-77
2021/01/19 01:50:37;;;;;;;1.15;1.05;;;0.10;99.90;;;;;;5051926;28;20877;-77
2021/01/19 01:53:03;;;;;;;1.48;1.23;;;0.40;99.90;;;;;;5050000;28;20447;-76
2021/01/19 01:55:29;;;;;;;1.63;1.30;;;1.70;99.90;;;;;;5052104;28;20382;-77
2021/01/19 01:57:55;;;;;;;1.80;1.20;;;0.40;99.90;;;;;;5051144;28;20388;-77
2021/01/19 02:00:21;;;;;;;1.10;1.00;;;0.10;99.90;;;;;;5051826;28;20464;-78
2021/01/19 02:02:55;;;;;;;1.30;1.10;;;0.30;99.90;;;;;;5050872;28;20386;-77
2021/01/19 02:05:21;;;;;;;2.10;1.40;;;0.70;99.90;;;;;;5051004;28;20716;-77
2021/01/19 02:08:01;;;;;;;1.83;1.40;;;2.40;99.90;;;;;;5050677;28;20422;-77
2021/01/19 02:10:50;;;;;;;1.30;1.15;;;1.90;99.90;;;;;;5051541;28;20376;-76
2021/01/19 02:13:43;;;;;;;1.80;1.20;;;0.50;99.90;;;;;;5051424;28;20433;-78
2021/01/19 02:16:37;;;;;;;2.47;1.30;;;0.40;99.90;;;;;;5051474;28;20381;-77
2021/01/19 02:19:24;;;;;;;1.50;1.40;;;0.30;99.90;;;;;;5050777;28;20373;-78
2021/01/19 02:21:50;;;;;;;2.40;1.40;;;0.50;99.90;;;;;;5050942;28;20381;-78
2021/01/19 02:24:44;;;;;;;1.20;1.10;;;0.80;99.90;;;;;;5051516;28;20453;-78
2021/01/19 02:27:38;;;;;;;1.53;1.10;;;1.20;99.90;;;;;;5049875;28;20846;-77
2021/01/19 02:30:09;;;;;;;1.00;0.85;;;1.70;99.90;;;;;;5050586;28;20523;-77
2021/01/19 02:32:59;;;;;;;1.80;1.00;;;1.40;99.90;;;;;;5051255;28;20492;-78
2021/01/19 02:35:31;;;;;;;1.97;1.33;;;1.50;99.90;;;;;;5051380;28;20484;-77
2021/01/19 02:38:26;;;;;;;2.42;1.35;;;2.00;99.90;;;;;;5066047;28;20393;-77
2021/01/19 02:40:55;;;;;;;1.23;1.13;;;0.30;99.90;;;;;;5050600;28;20390;-77
2021/01/19 02:43:25;;;;;;;2.00;1.40;;;0.20;99.90;;;;;;5051318;28;20397;-79
2021/01/19 02:45:55;;;;;;;2.40;1.45;;;0.20;99.90;;;;;;5050487;28;20523;-77
2021/01/19 02:48:23;;;;;;;2.07;1.20;;;1.70;99.90;;;;;;5049947;28;20381;-77
2021/01/19 02:50:49;;;;;;;2.47;1.50;;;-0.10;99.90;;;;;;5050453;28;20400;-77
2021/01/19 02:53:16;;;;;;;2.80;1.17;;;-0.20;99.90;;;;;;5050770;28;20446;-77
2021/01/19 02:55:43;;;;;;;2.60;1.30;;;-0.10;99.90;;;;;;5050684;28;20389;-77
2021/01/19 02:58:28;;;;;;;2.10;1.23;;;1.10;99.90;;;;;;5050187;28;20858;-76
2021/01/19 03:01:23;;;;;;;1.30;1.20;;;-0.20;99.90;;;;;;5050259;28;20382;-78
2021/01/19 03:03:50;;;;;;;1.80;1.40;;;0.10;99.90;;;;;;5049737;28;20884;-77
2021/01/19 03:06:19;;;;;;;1.20;1.10;;;0.30;99.90;;;;;;5050930;28;20400;-77
2021/01/19 03:08:55;;;;;;;1.30;1.15;;;0.20;99.90;;;;;;5050302;28;20390;-76
2021/01/19 03:11:24;;;;;;;1.50;1.00;;;-0.10;99.90;;;;;;5050852;28;20475;-78
2021/01/19 03:13:50;;;;;;;1.10;1.00;;;2.10;99.90;;;;;;5049876;28;20400;-76
2021/01/19 03:16:18;;;;;;;1.67;0.90;;;0.00;99.90;;;;;;5050302;28;20389;-76
2021/01/19 03:18:46;;;;;;;1.27;1.00;;;-0.10;99.90;;;;;;5049381;28;20415;-76
2021/01/19 03:21:12;;;;;;;1.50;1.00;;;-0.40;99.90;;;;;;5050424;28;20879;-77
2021/01/19 03:23:39;;;;;;;0.82;0.80;;;-0.10;99.90;;;;;;5051013;28;20390;-76
2021/01/19 03:26:06;;;;;;;1.17;0.93;;;-0.20;99.90;;;;;;5049728;28;20866;-77
2021/01/19 03:28:32;;;;;;;1.30;1.10;;;1.40;99.90;;;;;;5050358;28;20844;-76
2021/01/19 03:30:57;;;;;;;1.15;0.85;;;0.30;99.90;;;;;;5049865;28;20390;-77
2021/01/19 03:33:24;;;;;;;2.20;1.20;;;-0.30;99.90;;;;;;5050562;28;20405;-77
2021/01/19 03:35:50;;;;;;;1.10;0.90;;;-0.90;99.90;;;;;;5050271;28;20443;-77
2021/01/19 03:38:16;;;;;;;2.25;1.10;;;-0.70;99.90;;;;;;5050355;28;20377;-79
2021/01/19 03:40:42;;;;;;;1.38;1.10;;;-0.20;99.90;;;;;;5050779;28;20393;-77
2021/01/19 03:43:09;;;;;;;1.30;1.02;;;-0.70;99.90;;;;;;5049964;28;20466;-77
2021/01/19 03:45:35;;;;;;;1.35;1.02;;;-0.30;99.90;;;;;;5050541;28;20390;-78
2021/01/19 03:48:01;;;;;;;1.30;1.05;;;-0.50;99.90;;;;;;5031803;28;20397;-77
2021/01/19 03:50:28;;;;;;;1.75;0.90;;;-0.80;99.90;;;;;;5050393;28;20829;-79
2021/01/19 03:52:54;;;;;;;1.40;1.30;;;-0.80;99.90;;;;;;5048352;28;20452;-77
2021/01/19 03:55:20;;;;;;;1.20;1.10;;;1.30;99.90;;;;;;5050725;28;20459;-76
2021/01/19 03:57:46;;;;;;;1.10;1.00;;;-0.80;99.90;;;;;;5050311;28;20846;-76
2021/01/19 04:00:14;;;;;;;1.77;1.00;;;-0.20;99.90;;;;;;5049552;28;20385;-78
2021/01/19 04:02:40;;;;;;;1.20;1.05;;;-0.30;99.90;;;;;;5050131;28;20895;-76
2021/01/19 04:05:06;;;;;;;1.30;1.15;;;-0.50;99.90;;;;;;5049216;28;20377;-77
2021/01/19 04:07:33;;;;;;;1.38;0.88;;;-0.30;99.90;;;;;;5050318;28;20439;-77
2021/01/19 04:09:58;;;;;;;1.10;1.00;;;-0.50;99.90;;;;;;5049374;28;20470;-76
2021/01/19 04:12:24;;;;;;;1.20;1.05;;;2.30;99.90;;;;;;5050323;28;20500;-77
2021/01/19 04:14:50;;;;;;;1.77;1.08;;;-0.60;99.90;;;;;;5048659;28;20443;-77
2021/01/19 04:17:16;;;;;;;3.30;1.10;;;-0.80;99.90;;;;;;5048568;28;20458;-77
2021/01/19 04:19:41;;;;;;;2.70;1.17;;;-0.30;99.90;;;;;;5050459;28;20886;-77
2021/01/19 04:22:07;;;;;;;1.20;1.05;;;-0.70;99.90;;;;;;5048034;28;20480;-77
2021/01/19 04:24:33;;;;;;;1.40;1.20;;;-0.80;99.90;;;;;;5048935;28;20451;-77
2021/01/19 04:26:58;;;;;;;1.90;1.10;;;-0.80;99.90;;;;;;5044692;28;20387;-77
2021/01/19 04:29:24;;;;;;;1.30;1.20;;;-0.90;99.90;;;;;;5033442;28;20379;-76
2021/01/19 04:31:50;;;;;;;1.80;0.90;;;-0.80;99.90;;;;;;5033296;28;20447;-77
2021/01/19 04:34:15;;;;;;;1.50;1.10;;;1.70;99.90;;;;;;5033072;28;20385;-77
2021/01/19 04:36:41;;;;;;;1.90;1.23;;;-0.50;99.90;;;;;;5033692;28;20383;-77
2021/01/19 04:39:07;;;;;;;0.82;0.80;;;0.60;99.90;;;;;;5031728;28;20387;-76
2021/01/19 04:41:35;;;;;;;0.98;0.90;;;-0.40;99.90;;;;;;5033288;28;20395;-77
2021/01/19 04:44:01;;;;;;;2.30;1.40;;;-0.80;99.90;;;;;;5033319;28;20490;-77
2021/01/19 04:46:27;;;;;;;6.22;1.75;;;-0.60;99.90;;;;;;5033899;28;20383;-76
2021/01/19 04:48:54;;;;;;;1.20;1.08;;;-0.10;99.90;;;;;;5034847;28;20400;-76
2021/01/19 04:51:28;;;;;;;2.17;1.00;;;-0.70;99.90;;;;;;5042735;28;20472;-76
2021/01/19 04:54:05;;;;;;;1.70;1.20;;;-0.50;99.90;;;;;;5045017;28;20391;-77
2021/01/19 04:56:31;;;;;;;3.50;1.20;;;-0.30;99.90;;;;;;5043854;28;21121;-77
2021/01/19 04:58:57;;;;;;;4.32;1.30;;;-0.60;99.90;;;;;;5039151;28;20386;-76
2021/01/19 05:01:35;;;;;;;1.98;1.20;;;-0.30;99.90;;;;;;5042322;28;20729;-79
2021/01/19 05:04:26;;;;;;;1.70;1.30;;;0.90;99.90;;;;;;5043288;28;20473;-76
2021/01/19 05:06:57;;;;;;;1.50;1.40;;;-0.40;99.90;;;;;;5044110;28;20464;-79
2021/01/19 05:09:33;;;;;;;4.00;1.30;;;-0.30;99.90;;;;;;5040252;28;20400;-77
2021/01/19 05:12:03;;;;;;;3.90;1.23;;;-0.40;99.90;;;;;;5039946;28;20425;-78
2021/01/19 05:14:38;;;;;;;1.27;1.17;;;0.70;99.90;;;;;;5043445;28;20404;-77
2021/01/19 05:17:05;;;;;;;1.33;1.00;;;-1.60;99.90;;;;;;5043713;28;20377;-77
2021/01/19 05:19:31;;;;;;;1.23;0.93;;;-0.10;99.90;;;;;;5039552;28;20439;-77
2021/01/19 05:21:57;;;;;;;3.00;1.23;;;-0.60;99.90;;;;;;5042088;28;20397;-78
2021/01/19 05:24:26;;;;;;;1.10;1.00;;;-0.60;99.90;;;;;;5043704;28;20386;-77
2021/01/19 05:26:52;;;;;;;1.40;1.30;;;-0.40;99.90;;;;;;5041888;28;20390;-77
2021/01/19 05:29:18;;;;;;;3.40;1.10;;;-0.60;99.90;;;;;;5039822;28;21229;-77
2021/01/19 05:31:51;;;;;;;1.45;1.02;;;-0.30;99.90;;;;;;5042621;28;20448;-77
2021/01/19 05:34:17;;;;;;;2.00;1.10;;;1.10;99.90;;;;;;5041182;28;20516;-77
2021/01/19 05:36:48;;;;;;;1.70;1.20;;;-0.60;99.90;;;;;;5041237;28;20477;-77
2021/01/19 05:39:23;;;;;;;2.00;1.00;;;-0.50;99.90;;;;;;5039606;28;20393;-77
2021/01/19 05:41:53;;;;;;;2.17;1.40;;;-0.70;99.90;;;;;;5044318;28;20409;-77
2021/01/19 05:44:23;;;;;;;3.35;1.30;;;-0.90;99.90;;;;;;5041730;28;20456;-76
2021/01/19 05:47:04;;;;;;;2.20;1.40;;;-0.60;99.90;;;;;;5040642;28;20401;-76
2021/01/19 05:49:40;;;;;;;1.30;1.20;;;0.00;99.90;;;;;;5039038;28;20417;-78
2021/01/19 05:52:11;;;;;;;1.90;1.40;;;-0.80;99.90;;;;;;5049963;28;20405;-78
2021/01/19 05:54:41;;;;;;;2.80;1.20;;;-0.50;99.90;;;;;;5052199;28;20373;-78
2021/01/19 05:57:09;;;;;;;1.88;1.50;;;-1.10;99.90;;;;;;5050551;28;20421;-78
2021/01/19 05:59:45;;;;;;;1.75;1.40;;;-0.80;99.90;;;;;;5050876;28;20389;-78
2021/01/19 06:02:17;;;;;;;1.48;1.38;;;-0.70;99.90;;;;;;5049743;28;20850;-78
2021/01/19 06:04:48;;;;;;;1.67;1.20;;;-0.50;99.90;;;;;;5049388;28;20393;-78
2021/01/19 06:07:18;;;;;;;1.70;1.10;;;-0.90;99.90;;;;;;5049625;28;20857;-78
2021/01/19 06:09:45;;;;;;;1.95;1.33;;;-0.70;99.90;;;;;;5050765;28;20377;-78
2021/01/19 06:12:11;;;;;;;1.90;1.13;;;-0.80;99.90;;;;;;5049522;28;20416;-79
2021/01/19 06:14:37;;;;;;;2.22;1.35;;;-0.50;99.90;;;;;;5050902;28;20451;-76
2021/01/19 06:17:08;;;;;;;3.50;1.10;;;-0.90;99.90;;;;;;5049840;28;20442;-76
2021/01/19 06:19:34;;;;;;;1.90;1.10;;;0.00;99.90;;;;;;5050948;28;20462;-76
2021/01/19 06:22:14;;;;;;;1.80;1.30;;;1.60;99.90;;;;;;5050176;28;20374;-76
2021/01/19 06:24:42;;;;;;;1.98;1.38;;;-0.30;99.90;;;;;;5050652;28;21050;-76
2021/01/19 06:27:10;;;;;;;1.30;1.20;;;-0.50;99.90;;;;;;5049830;28;20381;-76
2021/01/19 06:29:36;;;;;;;2.35;1.00;;;-0.50;99.90;;;;;;5050788;28;20377;-75
2021/01/19 06:32:05;;;;;;;3.77;1.77;;;-0.40;99.90;;;;;;5048875;28;20402;-77
2021/01/19 06:34:33;;;;;;;2.65;1.50;;;-0.50;99.90;;;;;;5050234;28;20398;-76
2021/01/19 06:37:00;;;;;;;4.20;1.40;;;-0.40;99.90;;;;;;5050503;28;20386;-76
2021/01/19 06:39:40;;;;;;;2.13;1.40;;;-0.80;99.90;;;;;;5051173;28;20378;-76
2021/01/19 06:42:16;;;;;;;3.42;1.70;;;-0.20;99.90;;;;;;5050299;28;20401;-77
2021/01/19 06:44:47;;;;;;;2.00;1.50;;;-0.80;99.90;;;;;;5051404;28;20400;-76
2021/01/19 06:47:19;;;;;;;3.77;1.67;;;-0.60;99.90;;;;;;5036301;28;20426;-76
2021/01/19 06:49:45;;;;;;;2.92;1.17;;;-0.50;99.90;;;;;;5040723;28;20427;-76
2021/01/19 06:52:15;;;;;;;1.60;1.50;;;-0.60;99.90;;;;;;5041124;28;20402;-77
2021/01/19 06:54:52;;;;;;;3.08;1.85;;;-0.60;99.90;;;;;;5041808;28;20397;-77
2021/01/19 06:57:44;;;;;;;3.33;1.80;;;-0.50;99.90;;;;;;5036964;28;20754;-78
2021/01/19 07:00:18;;;;;;;2.42;1.30;;;-0.80;99.90;;;;;;5039282;28;20401;-77
2021/01/19 07:02:46;;;;;;;1.90;1.42;;;-0.50;99.90;;;;;;5041888;28;20400;-77
2021/01/19 07:05:13;;;;;;;2.40;1.85;;;-1.10;99.90;;;;;;5041335;28;20713;-77
2021/01/19 07:07:54;;;;;;;3.67;1.65;;;1.20;99.90;;;;;;5041161;28;20397;-77
2021/01/19 07:10:50;;;;;;;4.43;2.30;;;-0.60;99.90;;;;;;5040503;28;21409;-75
2021/01/19 07:13:23;;;;;;;3.80;2.30;;;-0.50;99.90;;;;;;5039369;28;20418;-75
2021/01/19 07:16:10;;;;;;;3.50;1.80;;;0.20;99.90;;;;;;5040064;28;20506;-75
2021/01/19 07:18:51;;;;;;;2.65;1.77;;;-0.60;99.90;;;;;;5040456;28;20402;-76
2021/01/19 07:21:20;;;;;;;3.00;1.70;;;-0.60;99.90;;;;;;5040490;28;20390;-75
2021/01/19 07:23:46;;;;;;;3.25;2.03;;;-0.40;99.90;;;;;;5040216;28;20389;-76
2021/01/19 07:26:19;;;;;;;2.70;1.80;;;-0.40;99.90;;;;;;5037484;28;20401;-77
2021/01/19 07:28:46;;;;;;;1.83;1.65;;;-0.50;99.90;;;;;;5041499;28;20715;-76
2021/01/19 07:31:16;;;;;;;2.80;1.55;;;0.20;99.90;;;;;;5041097;28;20801;-75
2021/01/19 07:33:47;;;;;;;3.80;1.70;;;-0.20;99.90;;;;;;5039627;28;21080;-75
2021/01/19 07:36:18;;;;;;;3.45;2.08;;;0.90;99.90;;;;;;5038516;28;20915;-76
2021/01/19 07:38:44;;;;;;;6.70;1.80;;;0.90;99.90;;;;;;5041623;28;20468;-77
2021/01/19 07:41:10;;;;;;;1.97;1.60;;;-0.40;99.90;;;;;;5041230;28;20468;-75
2021/01/19 07:43:37;;;;;;;1.80;1.70;;;-0.10;99.90;;;;;;5040830;28;20484;-76
2021/01/19 07:46:04;;;;;;;1.65;1.30;;;0.10;99.90;;;;;;5039032;28;20395;-77
2021/01/19 07:48:30;;;;;;;4.60;1.77;;;0.30;99.90;;;;;;5042165;28;20396;-76
2021/01/19 07:50:57;;;;;;;3.70;2.30;;;2.90;99.90;;;;;;5039742;28;20451;-76
2021/01/19 07:53:23;;;;;;;2.70;1.70;;;0.30;99.90;;;;;;5039192;28;20419;-76
2021/01/19 07:55:49;;;;;;;3.30;1.70;;;0.20;99.90;;;;;;5041150;28;20378;-77
2021/01/19 07:58:20;;;;;;;4.30;1.90;;;-0.50;99.90;;;;;;5038265;28;20408;-76
2021/01/19 08:00:58;;;;;;;1.85;1.30;;;0.90;99.90;;;;;;5040928;28;20389;-76
2021/01/19 08:03:28;;;;;;;2.10;1.77;;;0.60;99.90;;;;;;5042886;28;20393;-77
2021/01/19 08:05:54;;;;;;;3.70;1.90;;;3.10;99.90;;;;;;5044060;28;20416;-76
2021/01/19 08:08:19;;;;;;;2.37;1.87;;;0.50;99.90;;;;;;5042542;28;20465;-75
2021/01/19 08:10:58;;;;;;;3.00;1.60;;;1.00;99.90;;;;;;5045085;28;20450;-77
2021/01/19 08:13:25;;;;;;;2.00;1.80;;;0.80;99.90;;;;;;5044251;28;20441;-78
2021/01/19 08:16:06;;;;;;;1.65;1.55;;;1.20;99.90;;;;;;5042291;28;20805;-76
2021/01/19 08:18:38;;;;;;;2.33;1.30;;;0.90;99.90;;;;;;5043786;28;20399;-75
2021/01/19 08:21:05;;;;;;;2.00;1.50;;;0.80;99.90;;;;;;5041864;28;20382;-75
2021/01/19 08:23:33;;;;;;;2.10;1.40;;;1.30;99.90;;;;;;5045054;28;20389;-76
2021/01/19 08:26:10;;;;;;;2.20;1.83;;;1.00;99.90;;;;;;5041209;28;20440;-76
2021/01/19 08:28:36;;;;;;;2.30;1.60;;;1.60;99.90;;;;;;5042852;28;20904;-76
2021/01/19 08:31:13;;;;;;;3.92;1.42;;;1.70;99.90;;;;;;5043930;28;20386;-77
2021/01/19 08:33:40;;;;;;;2.03;1.10;;;2.70;99.90;;;;;;5043808;28;20435;-77
2021/01/19 08:36:09;;;;;;;4.50;1.10;;;3.70;99.90;;;;;;5042477;28;20397;-77
2021/01/19 08:38:35;;;;;;;3.45;1.75;;;3.40;99.90;;;;;;5042661;28;20377;-77
2021/01/19 08:41:01;;;;;;;3.27;1.63;;;4.10;99.90;;;;;;5044664;28;20852;-77
2021/01/19 08:43:27;;;;;;;3.10;1.50;;;4.20;99.90;;;;;;5044412;28;20715;-76
2021/01/19 08:45:54;;;;;;;2.20;1.10;;;4.20;99.90;;;;;;5040246;28;20439;-78
2021/01/19 08:48:21;;;;;;;4.65;0.90;;;4.30;99.90;;;;;;5040419;28;20400;-78
2021/01/19 08:50:47;;;;;;;4.28;0.77;;;4.20;99.90;;;;;;5044368;28;20500;-78
2021/01/19 08:53:14;;;;;;;2.13;1.30;;;4.60;99.90;;;;;;5041413;28;20893;-78
2021/01/19 08:55:44;;;;;;;1.48;0.70;;;4.60;98.80;;;;;;5042543;28;20397;-77
2021/01/19 08:58:19;;;;;;;2.97;1.10;;;3.70;97.90;;;;;;5042020;28;20862;-76
2021/01/19 09:00:45;;;;;;;1.58;1.30;;;4.60;99.90;;;;;;5044150;28;20813;-77
2021/01/19 09:03:15;;;;;;;2.20;1.40;;;3.60;99.80;;;;;;5041825;28;20397;-78
2021/01/19 09:05:41;;;;;;;1.70;1.25;;;4.10;99.90;;;;;;5043348;28;20477;-78
2021/01/19 09:08:15;;;;;;;1.50;1.40;;;3.60;99.90;;;;;;5041911;28;20374;-78
2021/01/19 09:10:41;;;;;;;3.05;2.20;;;3.30;99.90;;;;;;5043197;28;20492;-78
2021/01/19 09:13:07;;;;;;;1.90;1.40;;;3.10;99.90;;;;;;5041510;28;20417;-78
2021/01/19 09:15:43;;;;;;;2.20;1.90;;;2.80;99.90;;;;;;5044401;28;20394;-77
2021/01/19 09:18:14;;;;;;;2.78;2.50;;;2.60;99.90;;;;;;5039838;28;20389;-79
2021/01/19 09:20:40;;;;;;;7.15;3.60;;;3.60;99.90;;;;;;5040462;28;20481;-77
2021/01/19 09:23:19;;;;;;;3.00;1.35;;;3.00;99.90;;;;;;5040869;28;20858;-78
2021/01/19 09:25:46;;;;;;;2.55;1.05;;;4.00;99.90;;;;;;5044026;28;20377;-77
2021/01/19 09:28:14;;;;;;;1.23;0.75;;;4.60;99.90;;;;;;5041165;28;20381;-78
2021/01/19 09:30:40;;;;;;;1.45;0.80;;;4.90;96.80;;;;;;5042378;28;20870;-78
2021/01/19 09:33:10;;;;;;;2.38;0.90;;;5.10;95.20;;;;;;5043528;28;20494;-77
2021/01/19 09:35:37;;;;;;;0.70;0.68;;;5.30;94.30;;;;;;5044173;28;20373;-79
2021/01/19 09:38:04;;;;;;;3.58;0.90;;;5.80;92.80;;;;;;5040485;28;20692;-78
2021/01/19 09:40:32;;;;;;;4.00;1.02;;;5.60;95.40;;;;;;5042994;28;20393;-79
2021/01/19 09:43:04;;;;;;;3.00;1.00;;;5.80;96.00;;;;;;5044022;28;20389;-80
2021/01/19 09:45:30;;;;;;;1.38;0.70;;;6.10;91.50;;;;;;5042131;28;20420;-77
2021/01/19 09:47:56;;;;;;;1.70;0.65;;;5.90;94.70;;;;;;5037880;28;20913;-79
2021/01/19 09:50:22;;;;;;;0.60;0.60;;;5.50;94.30;;;;;;5042834;28;20414;-77
2021/01/19 09:52:48;;;;;;;0.85;0.60;;;5.80;88.50;;;;;;5043094;28;20829;-78
2021/01/19 09:55:20;;;;;;;3.20;0.80;;;6.00;88.40;;;;;;5039888;28;20490;-78
2021/01/19 09:57:59;;;;;;;1.15;0.60;;;5.90;86.50;;;;;;5041748;28;20739;-79
2021/01/19 10:00:30;;;;;;;1.10;0.50;;;6.10;82.40;;;;;;5042707;28;20818;-78
2021/01/19 10:02:56;;;;;;;3.08;0.60;;;6.00;87.10;;;;;;5042967;28;20417;-78
2021/01/19 10:05:23;;;;;;;0.75;0.47;;;6.00;90.80;;;;;;5043730;28;20927;-77
2021/01/19 10:07:49;;;;;;;0.90;0.60;;;6.00;91.10;;;;;;5043003;28;20374;-78
2021/01/19 10:10:16;;;;;;;2.55;0.68;;;6.40;88.20;;;;;;5042472;28;20385;-77
2021/01/19 10:12:43;;;;;;;1.50;0.60;;;6.10;85.80;;;;;;5042869;28;20840;-79
2021/01/19 10:15:19;;;;;;;1.30;0.70;;;5.90;85.50;;;;;;5044639;28;20398;-77
2021/01/19 10:17:46;;;;;;;1.50;0.57;;;5.90;86.00;;;;;;5041827;28;20374;-78
2021/01/19 10:20:15;;;;;;;0.90;0.60;;;6.00;86.40;;;;;;5040039;28;20443;-77
2021/01/19 10:22:46;;;;;;;1.23;0.60;;;5.90;85.50;;;;;;5043795;28;20397;-80
2021/01/19 10:25:13;;;;;;;3.38;1.10;;;5.70;92.10;;;;;;5042523;28;20866;-79
2021/01/19 10:27:44;;;;;;;0.70;0.60;;;5.70;85.80;;;;;;5040776;28;20816;-79
2021/01/19 10:30:11;;;;;;;1.40;0.90;;;6.00;92.00;;;;;;5039143;28;20393;-78
2021/01/19 10:32:50;;;;;;;0.75;0.60;;;5.50;88.50;;;;;;5043733;28;20728;-77
2021/01/19 10:35:35;;;;;;;1.00;0.77;;;6.00;78.20;;;;;;5042686;28;20385;-78
2021/01/19 10:38:08;;;;;;;0.98;0.50;;;5.80;77.30;;;;;;5041191;28;20385;-78
2021/01/19 10:40:36;;;;;;;0.80;0.60;;;5.90;83.40;;;;;;5039640;28;20406;-78
2021/01/19 10:43:08;;;;;;;1.58;0.60;;;5.60;91.40;;;;;;5049450;28;20424;-78
2021/01/19 10:45:37;;;;;;;1.42;0.60;;;6.00;91.40;;;;;;5040542;28;20760;-78
2021/01/19 10:48:04;;;;;;;0.57;0.40;;;6.00;92.70;;;;;;5039290;28;20382;-78
2021/01/19 10:50:31;;;;;;;1.90;0.50;;;6.10;91.00;;;;;;5042498;28;20441;-77
2021/01/19 10:53:01;;;;;;;1.33;0.60;;;7.00;90.80;;;;;;5043206;28;20405;-78
2021/01/19 10:55:28;;;;;;;1.50;0.40;;;6.80;91.00;;;;;;5042832;28;20491;-78
2021/01/19 10:57:59;;;;;;;2.58;0.70;;;5.60;79.00;;;;;;5051957;28;20394;-76
2021/01/19 11:00:26;;;;;;;1.60;0.63;;;6.00;89.50;;;;;;5042299;28;20842;-78
2021/01/19 11:02:53;;;;;;;0.60;0.50;;;6.00;84.60;;;;;;5040642;28;20869;-79
2021/01/19 11:05:20;;;;;;;0.77;0.40;;;6.00;77.50;;;;;;5039937;28;20385;-77
2021/01/19 11:07:47;;;;;;;0.88;0.50;;;7.00;81.10;;;;;;5039854;28;20373;-77
2021/01/19 11:10:15;;;;;;;1.40;0.50;;;6.50;79.20;;;;;;5040673;28;20373;-77
2021/01/19 11:12:41;;;;;;;1.40;0.70;;;6.00;77.90;;;;;;5039786;28;20820;-77
2021/01/19 11:15:09;;;;;;;1.35;0.45;;;6.30;81.70;;;;;;5039027;28;20416;-77
2021/01/19 11:17:36;;;;;;;0.70;0.50;;;6.20;84.50;;;;;;5040909;28;20461;-76
2021/01/19 11:20:04;;;;;;;0.85;0.63;;;6.80;83.70;;;;;;5041170;28;20753;-77
2021/01/19 11:22:29;;;;;;;1.70;0.60;;;6.40;73.00;;;;;;5039740;28;20440;-76
2021/01/19 11:24:55;;;;;;;1.30;0.50;;;6.50;72.40;;;;;;5041797;28;20401;-78
2021/01/19 11:27:21;;;;;;;0.77;0.47;;;6.50;70.50;;;;;;5038825;28;20393;-78
2021/01/19 11:29:46;;;;;;;0.73;0.47;;;7.40;82.70;;;;;;5041234;28;20397;-78
2021/01/19 11:32:12;;;;;;;1.80;0.50;;;6.50;70.30;;;;;;5043096;28;20913;-77
2021/01/19 11:34:40;;;;;;;1.00;0.50;;;7.40;68.10;;;;;;5041473;28;20452;-78
2021/01/19 11:37:05;;;;;;;0.80;0.40;;;7.70;70.00;;;;;;5042537;28;20785;-78
2021/01/19 11:39:31;;;;;;;0.80;0.50;;;7.00;65.70;;;;;;5045647;28;20389;-77
2021/01/19 11:41:57;;;;;;;0.50;0.40;;;7.20;75.50;;;;;;5044224;28;20409;-79
2021/01/19 11:44:23;;;;;;;1.50;0.55;;;6.50;63.20;;;;;;5041886;28;20397;-77
2021/01/19 11:46:49;;;;;;;1.10;0.50;;;8.40;64.80;;;;;;5045113;28;20404;-77
2021/01/19 11:49:15;;;;;;;0.90;0.40;;;6.50;62.10;;;;;;5043494;28;20461;-78
2021/01/19 11:51:41;;;;;;;1.02;0.52;;;6.80;69.80;;;;;;5046636;28;20484;-76
2021/01/19 11:54:10;;;;;;;0.60;0.50;;;6.90;67.80;;;;;;5046287;28;20389;-76
2021/01/19 11:56:42;;;;;;;1.00;0.50;;;6.80;67.00;;;;;;5042418;28;20394;-77
2021/01/19 11:59:09;;;;;;;0.60;0.40;;;7.00;67.00;;;;;;5045316;28;20400;-77
2021/01/19 12:01:39;;;;;;;0.60;0.30;;;7.40;57.70;;;;;;5046535;28;20382;-76
2021/01/19 12:04:07;;;;;;;0.80;0.40;;;7.60;67.80;;;;;;5045120;28;20393;-77
2021/01/19 12:06:33;;;;;;;0.40;0.30;;;6.70;65.60;;;;;;5043044;28;20389;-77
2021/01/19 12:08:59;;;;;;;0.80;0.50;;;7.40;56.40;;;;;;5045637;28;20378;-76
2021/01/19 12:11:25;;;;;;;0.80;0.60;;;6.70;62.20;;;;;;5045108;28;20887;-76
2021/01/19 12:13:50;;;;;;;0.60;0.32;;;7.40;56.40;;;;;;5043263;28;20417;-79
2021/01/19 12:16:21;;;;;;;0.57;0.40;;;7.20;55.90;;;;;;5042823;28;20475;-78
2021/01/19 12:18:48;;;;;;;0.52;0.30;;;6.90;55.50;;;;;;5045000;28;20389;-77
2021/01/19 12:21:14;;;;;;;0.80;0.40;;;6.90;55.20;;;;;;5045048;28;20393;-78
2021/01/19 12:23:40;;;;;;;0.90;0.50;;;7.00;56.10;;;;;;5045343;28;20537;-77
2021/01/19 12:26:06;;;;;;;1.07;0.30;;;8.50;58.00;;;;;;5043382;28;20520;-77
2021/01/19 12:28:32;;;;;;;0.80;0.30;;;;;;;;;;5043713;28;20476;-78
2021/01/19 12:30:58;;;;;;;0.90;0.70;;;6.90;59.40;;;;;;5051040;28;20423;-77
2021/01/19 12:33:23;;;;;;;1.30;0.30;;;7.30;62.90;;;;;;5043586;28;20417;-77
2021/01/19 12:35:51;;;;;;;0.50;0.40;;;6.90;57.40;;;;;;5044137;28;20401;-78
2021/01/19 12:38:17;;;;;;;1.00;0.40;;;7.60;58.30;;;;;;5045190;28;20401;-78
2021/01/19 12:40:43;;;;;;;0.90;0.50;;;8.10;59.60;;;;;;5041651;28;20396;-77
2021/01/19 12:43:09;;;;;;;1.10;0.60;;;7.80;60.10;;;;;;5041511;28;20521;-79
2021/01/19 12:45:38;;;;;;;0.60;0.50;;;6.30;60.00;;;;;;5036522;28;20392;-78
2021/01/19 12:48:05;;;;;;;1.00;0.50;;;7.50;62.70;;;;;;5041868;28;20382;-76
2021/01/19 12:50:32;;;;;;;1.30;0.50;;;6.30;68.40;;;;;;5042147;28;20414;-78
2021/01/19 12:53:01;;;;;;;1.00;0.70;;;6.20;73.40;;;;;;5044877;28;20459;-77
2021/01/19 12:55:28;;;;;;;0.70;0.70;;;6.60;64.90;;;;;;5042805;28;20695;-78
2021/01/19 12:57:53;;;;;;;1.38;0.70;;;6.50;77.10;;;;;;5041391;28;20385;-78
2021/01/19 13:00:19;;;;;;;0.70;0.50;;;6.90;77.10;;;;;;5043223;28;20392;-80
2021/01/19 13:02:45;;;;;;;1.10;0.70;;;6.30;65.20;;;;;;5045159;28;20400;-77
2021/01/19 13:05:11;;;;;;;0.80;0.60;;;7.30;66.50;;;;;;5043318;28;20749;-76